Current Weather

Luke Afb

Glendale, Arizona (KLUF)

Report from: Sunday, June 26, 2022 8:58 AM MST
Current time: Sunday, June 26, 2022 9:26 AM MST

Nearby weather
Weather history
Weather forecast

Temperature34.9°C (94.8°F)
Heat index33.6°C (92.5°F)
Dew point11.9°C (53.4°F)
Winds Calm
Visibility10 mi. (16.1 km)
Clouds Ceiling: Broken clouds 21,000 ft. (6,401 m)
Altimeter29.99 in.Hg (1016 mB)
Relative humidity25 %
Density altitude2,378 ft. (725 m)
Sea-level pressure101.4 kPa (1014 mB, 29.94 in.Hg)
Remarks Fully automated report
System requires maintenance
Automated weather observing station with precipitation discriminator
Flight conditions Visual Meteorological Conditions
Raw dataKLUF 261558Z AUTO 00000KT 10SM BKN210 35/12 A2999 RMK AO2 SLP140 T03490119 $
An error has occurred. This application may no longer respond until reloaded. Reload 🗙